createdAt,value
2017-01-21T00:00:13.862Z,930.59
2017-01-21T00:00:28.914Z,930.62
2017-01-21T00:00:43.751Z,930.6
2017-01-21T00:00:58.531Z,930.58
2017-01-21T00:01:13.317Z,930.59
2017-01-21T00:01:28.063Z,930.59
2017-01-21T00:01:42.817Z,930.62
2017-01-21T00:01:57.798Z,930.58
2017-01-21T00:02:12.677Z,930.61
2017-01-21T00:02:27.575Z,930.59
2017-01-21T00:02:42.523Z,930.61
2017-01-21T00:02:57.249Z,930.6
2017-01-21T00:03:12.416Z,930.62
2017-01-21T00:03:27.384Z,930.56
2017-01-21T00:03:42.189Z,930.58
2017-01-21T00:03:56.998Z,930.61
2017-01-21T00:04:11.874Z,930.64
2017-01-21T00:04:26.450Z,930.6
2017-01-21T00:04:41.424Z,930.64
2017-01-21T00:04:56.289Z,930.63
2017-01-21T00:05:10.959Z,930.63
2017-01-21T00:05:25.991Z,930.58
2017-01-21T00:05:41.078Z,930.61
2017-01-21T00:05:56.134Z,930.63
2017-01-21T00:06:11.127Z,930.6
2017-01-21T00:06:25.799Z,930.65
2017-01-21T00:06:40.490Z,930.65
2017-01-21T00:06:55.330Z,930.62
2017-01-21T00:07:10.091Z,930.64
2017-01-21T00:07:25.032Z,930.64
2017-01-21T00:07:40.025Z,930.63
2017-01-21T00:07:55.007Z,930.65
2017-01-21T00:08:09.874Z,930.64
2017-01-21T00:08:25.127Z,930.65
2017-01-21T00:08:39.991Z,930.67
2017-01-21T00:08:55.004Z,930.68
2017-01-21T00:09:09.669Z,930.65
2017-01-21T00:09:24.462Z,930.66
2017-01-21T00:09:39.569Z,930.68
2017-01-21T00:09:54.531Z,930.68
2017-01-21T00:10:09.657Z,930.67
2017-01-21T00:10:24.500Z,930.66
2017-01-21T00:10:39.450Z,930.66
2017-01-21T00:10:54.335Z,930.64
2017-01-21T00:11:09.363Z,930.68
2017-01-21T00:11:24.613Z,930.69
2017-01-21T00:11:39.417Z,930.69
2017-01-21T00:11:54.405Z,930.65
2017-01-21T00:12:09.202Z,930.7
2017-01-21T00:12:23.957Z,930.66
2017-01-21T00:12:38.939Z,930.66
2017-01-21T00:12:53.939Z,930.68
2017-01-21T00:13:08.829Z,930.7
2017-01-21T00:13:23.735Z,930.68
2017-01-21T00:13:38.372Z,930.63
2017-01-21T00:13:53.183Z,930.69
2017-01-21T00:14:08.170Z,930.66
2017-01-21T00:14:22.934Z,930.67
2017-01-21T00:14:37.928Z,930.64
2017-01-21T00:14:53.080Z,930.67
2017-01-21T00:15:07.949Z,930.69
2017-01-21T00:15:22.840Z,930.67
2017-01-21T00:15:37.658Z,930.66
2017-01-21T00:15:52.433Z,930.68
2017-01-21T00:16:07.377Z,930.68
2017-01-21T00:16:22.056Z,930.68
2017-01-21T00:16:37.076Z,930.65
2017-01-21T00:16:51.898Z,930.68
2017-01-21T00:17:06.822Z,930.66
2017-01-21T00:17:21.686Z,930.68
2017-01-21T00:17:36.826Z,930.66
2017-01-21T00:17:51.662Z,930.69
2017-01-21T00:18:06.296Z,930.7
2017-01-21T00:18:21.125Z,930.69
2017-01-21T00:18:35.816Z,930.69
2017-01-21T00:18:50.556Z,930.68
2017-01-21T00:19:05.384Z,930.69
2017-01-21T00:19:20.338Z,930.7
2017-01-21T00:19:35.297Z,930.68
2017-01-21T00:19:50.149Z,930.7
2017-01-21T00:20:05.099Z,930.68
2017-01-21T00:20:19.797Z,930.66
2017-01-21T00:20:34.371Z,930.7
2017-01-21T00:20:49.307Z,930.69
2017-01-21T00:21:04.050Z,930.7
2017-01-21T00:21:18.947Z,930.67
2017-01-21T00:21:33.876Z,930.71
2017-01-21T00:21:48.743Z,930.7
2017-01-21T00:22:03.699Z,930.7
2017-01-21T00:22:18.686Z,930.73
2017-01-21T00:22:33.526Z,930.71
2017-01-21T00:22:48.337Z,930.71
2017-01-21T00:23:03.218Z,930.73
2017-01-21T00:23:18.316Z,930.75
2017-01-21T00:23:33.121Z,930.74
2017-01-21T00:23:47.801Z,930.73
2017-01-21T00:24:02.732Z,930.75
2017-01-21T00:24:17.757Z,930.74
2017-01-21T00:24:32.587Z,930.75
2017-01-21T00:24:47.433Z,930.74
2017-01-21T00:25:02.373Z,930.78
2017-01-21T00:25:17.118Z,930.74
2017-01-21T00:25:32.065Z,930.75
2017-01-21T00:25:46.885Z,930.77
2017-01-21T00:26:01.855Z,930.75
2017-01-21T00:26:16.718Z,930.75
2017-01-21T00:26:31.603Z,930.77
2017-01-21T00:26:46.645Z,930.81
2017-01-21T00:27:01.507Z,930.76
2017-01-21T00:27:16.291Z,930.76
2017-01-21T00:27:31.137Z,930.76
2017-01-21T00:27:46.177Z,930.75
2017-01-21T00:28:00.989Z,930.78
2017-01-21T00:28:16.047Z,930.75
2017-01-21T00:28:30.894Z,930.79
2017-01-21T00:28:45.721Z,930.76
2017-01-21T00:29:00.488Z,930.8
2017-01-21T00:29:15.477Z,930.79
2017-01-21T00:29:30.263Z,930.81
2017-01-21T00:29:44.950Z,930.82
2017-01-21T00:29:59.731Z,930.81
2017-01-21T00:30:14.911Z,930.82
2017-01-21T00:30:29.604Z,930.8
2017-01-21T00:30:44.370Z,930.83
2017-01-21T00:30:59.501Z,930.82
2017-01-21T00:31:14.379Z,930.86
2017-01-21T00:31:29.268Z,930.81
2017-01-21T00:31:44.182Z,930.85
2017-01-21T00:31:58.973Z,930.83
2017-01-21T00:32:13.632Z,930.86
2017-01-21T00:32:28.706Z,930.83
2017-01-21T00:32:43.427Z,930.81
2017-01-21T00:32:58.247Z,930.83
2017-01-21T00:33:13.019Z,930.83
2017-01-21T00:33:27.944Z,930.84
2017-01-21T00:33:42.844Z,930.83
2017-01-21T00:33:57.639Z,930.85
2017-01-21T00:34:12.403Z,930.86
2017-01-21T00:34:27.221Z,930.85
2017-01-21T00:34:42.239Z,930.84
2017-01-21T00:34:57.223Z,930.87
2017-01-21T00:35:12.225Z,930.84
2017-01-21T00:35:27.311Z,930.85
2017-01-21T00:35:42.104Z,930.9
2017-01-21T00:35:56.850Z,930.85
2017-01-21T00:36:11.684Z,930.89
2017-01-21T00:36:26.420Z,930.86
2017-01-21T00:36:41.478Z,930.83
2017-01-21T00:36:56.360Z,930.89
2017-01-21T00:37:11.319Z,930.88
2017-01-21T00:37:26.071Z,930.89
2017-01-21T00:37:40.914Z,930.88
2017-01-21T00:37:55.811Z,930.88
2017-01-21T00:38:10.532Z,930.91
2017-01-21T00:38:25.557Z,930.88
2017-01-21T00:38:40.482Z,930.9
2017-01-21T00:38:55.478Z,930.89
2017-01-21T00:39:10.382Z,930.91
2017-01-21T00:39:25.214Z,930.89
2017-01-21T00:39:40.034Z,930.89
2017-01-21T00:39:54.576Z,930.89
2017-01-21T00:40:09.368Z,930.88
2017-01-21T00:40:24.171Z,930.89
2017-01-21T00:40:38.990Z,930.9
2017-01-21T00:40:53.672Z,930.9
2017-01-21T00:41:08.523Z,930.87
2017-01-21T00:41:23.439Z,930.92
2017-01-21T00:41:38.107Z,930.9
2017-01-21T00:41:52.775Z,930.85
2017-01-21T00:42:07.410Z,930.89
2017-01-21T00:42:22.341Z,930.9
2017-01-21T00:42:37.013Z,930.9
2017-01-21T00:42:52.069Z,930.9
2017-01-21T00:43:06.881Z,930.88
2017-01-21T00:43:21.844Z,930.89
2017-01-21T00:43:36.670Z,930.89
2017-01-21T00:43:51.540Z,930.9
2017-01-21T00:44:06.667Z,930.9
2017-01-21T00:44:21.472Z,930.9
2017-01-21T00:44:36.369Z,930.87
2017-01-21T00:44:51.135Z,930.85
2017-01-21T00:45:05.755Z,930.87
2017-01-21T00:45:20.772Z,930.88
2017-01-21T00:45:35.705Z,930.87
2017-01-21T00:45:50.359Z,930.85
2017-01-21T00:46:05.135Z,930.86
2017-01-21T00:46:19.982Z,930.88
2017-01-21T00:46:34.998Z,930.85
2017-01-21T00:46:49.842Z,930.84
2017-01-21T00:47:04.490Z,930.84
2017-01-21T00:47:19.660Z,930.81
2017-01-21T00:47:34.503Z,930.82
2017-01-21T00:47:49.569Z,930.81
2017-01-21T00:48:04.397Z,930.83
2017-01-21T00:48:19.115Z,930.85
2017-01-21T00:48:33.933Z,930.84
2017-01-21T00:48:48.861Z,930.82
2017-01-21T00:49:03.849Z,930.85
2017-01-21T00:49:18.839Z,930.8
2017-01-21T00:49:33.466Z,930.82
2017-01-21T00:49:48.543Z,930.83
2017-01-21T00:50:03.254Z,930.8
2017-01-21T00:50:18.188Z,930.82
2017-01-21T00:50:33.204Z,930.81
2017-01-21T00:50:48.090Z,930.8
2017-01-21T00:51:03.009Z,930.82
2017-01-21T00:51:18.084Z,930.8
2017-01-21T00:51:32.604Z,930.8
2017-01-21T00:51:47.269Z,930.8
2017-01-21T00:52:02.120Z,930.81
2017-01-21T00:52:16.759Z,930.78
2017-01-21T00:52:31.556Z,930.79
2017-01-21T00:52:46.207Z,930.81
2017-01-21T00:53:01.407Z,930.8
2017-01-21T00:53:16.251Z,930.78
2017-01-21T00:53:30.972Z,930.79
2017-01-21T00:53:45.861Z,930.79
2017-01-21T00:54:00.894Z,930.78
2017-01-21T00:54:15.774Z,930.81
2017-01-21T00:54:30.810Z,930.8
2017-01-21T00:54:45.767Z,930.8
2017-01-21T00:55:00.612Z,930.82
2017-01-21T00:55:15.330Z,930.79
2017-01-21T00:55:30.302Z,930.79
2017-01-21T00:55:45.058Z,930.8
2017-01-21T00:55:59.945Z,930.79
2017-01-21T00:56:14.730Z,930.81
2017-01-21T00:56:29.515Z,930.78
2017-01-21T00:56:44.253Z,930.82
2017-01-21T00:56:58.957Z,930.79
2017-01-21T00:57:13.875Z,930.77
2017-01-21T00:57:28.944Z,930.79
2017-01-21T00:57:43.867Z,930.81
2017-01-21T00:57:58.913Z,930.78
2017-01-21T00:58:13.931Z,930.8
2017-01-21T00:58:28.859Z,930.79
2017-01-21T00:58:43.670Z,930.8
2017-01-21T00:58:58.278Z,930.81
2017-01-21T00:59:13.271Z,930.8
2017-01-21T00:59:28.284Z,930.8
2017-01-21T00:59:43.186Z,930.81
2017-01-21T00:59:58.159Z,930.79
2017-01-21T01:00:13.126Z,930.8
2017-01-21T01:00:27.804Z,930.76
2017-01-21T01:00:42.816Z,930.81
2017-01-21T01:00:57.791Z,930.77
2017-01-21T01:01:12.765Z,930.79
2017-01-21T01:01:27.852Z,930.77
2017-01-21T01:01:42.799Z,930.75
2017-01-21T01:01:57.716Z,930.79
2017-01-21T01:02:12.553Z,930.78
2017-01-21T01:02:27.643Z,930.78
2017-01-21T01:02:42.305Z,930.76
2017-01-21T01:02:57.167Z,930.76
2017-01-21T01:03:12.198Z,930.77
2017-01-21T01:03:26.858Z,930.8
2017-01-21T01:03:41.894Z,930.78
2017-01-21T01:03:56.627Z,930.78
2017-01-21T01:04:11.508Z,930.8
2017-01-21T01:04:26.285Z,930.82
2017-01-21T01:04:40.889Z,930.76
2017-01-21T01:04:55.786Z,930.8
2017-01-21T01:05:10.738Z,930.78
2017-01-21T01:05:25.524Z,930.8
2017-01-21T01:05:40.346Z,930.79
2017-01-21T01:05:55.070Z,930.8
2017-01-21T01:06:09.933Z,930.79
2017-01-21T01:06:24.788Z,930.8
2017-01-21T01:06:39.666Z,930.79
2017-01-21T01:06:54.860Z,930.78
2017-01-21T01:07:09.479Z,930.78
2017-01-21T01:07:24.187Z,930.79
2017-01-21T01:07:38.894Z,930.79
2017-01-21T01:07:53.763Z,930.76
2017-01-21T01:08:08.737Z,930.8
2017-01-21T01:08:23.882Z,930.84
2017-01-21T01:08:38.664Z,930.82
2017-01-21T01:08:53.518Z,930.8
2017-01-21T01:09:08.369Z,930.8
2017-01-21T01:09:23.112Z,930.81
2017-01-21T01:09:38.127Z,930.79
2017-01-21T01:09:53.161Z,930.81
2017-01-21T01:10:07.977Z,930.82
2017-01-21T01:10:22.870Z,930.84
2017-01-21T01:10:37.580Z,930.84
2017-01-21T01:10:52.553Z,930.83
2017-01-21T01:11:07.437Z,930.81
2017-01-21T01:11:22.536Z,930.82
2017-01-21T01:11:37.235Z,930.82
2017-01-21T01:11:52.262Z,930.85
2017-01-21T01:12:06.909Z,930.83
2017-01-21T01:12:21.655Z,930.84
2017-01-21T01:12:36.286Z,930.83
2017-01-21T01:12:51.044Z,930.85
2017-01-21T01:13:06.077Z,930.83
2017-01-21T01:13:20.908Z,930.82
2017-01-21T01:13:35.754Z,930.82
2017-01-21T01:13:50.440Z,930.84
2017-01-21T01:14:05.226Z,930.83
2017-01-21T01:14:20.083Z,930.84
2017-01-21T01:14:34.895Z,930.83
2017-01-21T01:14:50.058Z,930.83
2017-01-21T01:15:05.012Z,930.82
2017-01-21T01:15:19.900Z,930.84
2017-01-21T01:15:34.772Z,930.84
2017-01-21T01:15:49.449Z,930.84
2017-01-21T01:16:04.400Z,930.87
2017-01-21T01:16:19.412Z,930.86
2017-01-21T01:16:34.299Z,930.86
2017-01-21T01:16:49.414Z,930.86
2017-01-21T01:17:04.193Z,930.85
2017-01-21T01:17:18.990Z,930.87
2017-01-21T01:17:34.027Z,930.83
2017-01-21T01:17:49.046Z,930.82
2017-01-21T01:18:03.630Z,930.82
2017-01-21T01:18:18.653Z,930.87
2017-01-21T01:18:33.444Z,930.87
2017-01-21T01:18:48.465Z,930.88
2017-01-21T01:19:03.542Z,930.86
2017-01-21T01:19:18.206Z,930.84
2017-01-21T01:19:33.177Z,930.88
2017-01-21T01:19:47.944Z,930.84
2017-01-21T01:20:02.695Z,930.89
2017-01-21T01:20:17.340Z,930.84
2017-01-21T01:20:32.179Z,930.86
2017-01-21T01:20:46.972Z,930.86
2017-01-21T01:21:01.605Z,930.82
2017-01-21T01:21:16.476Z,930.81
2017-01-21T01:21:31.302Z,930.82
2017-01-21T01:21:46.119Z,930.83
2017-01-21T01:22:00.952Z,930.83
2017-01-21T01:22:16.020Z,930.79
2017-01-21T01:22:30.914Z,930.81
2017-01-21T01:22:45.594Z,930.84
2017-01-21T01:23:00.446Z,930.82
2017-01-21T01:23:15.686Z,930.8
2017-01-21T01:23:30.441Z,930.83
2017-01-21T01:23:45.224Z,930.81
2017-01-21T01:23:59.990Z,930.8
2017-01-21T01:24:14.954Z,930.82
2017-01-21T01:24:30.025Z,930.83
2017-01-21T01:24:45.096Z,930.84
2017-01-21T01:24:59.984Z,930.82
2017-01-21T01:25:14.845Z,930.85
2017-01-21T01:25:29.851Z,930.8
2017-01-21T01:25:44.529Z,930.82
2017-01-21T01:25:59.247Z,930.81
2017-01-21T01:26:14.105Z,930.8
2017-01-21T01:26:29.087Z,930.79
2017-01-21T01:26:44.091Z,930.81
2017-01-21T01:26:59.241Z,930.84
2017-01-21T01:27:14.304Z,930.8
2017-01-21T01:27:29.351Z,930.81
2017-01-21T01:27:44.264Z,930.8
2017-01-21T01:27:59.166Z,930.8
2017-01-21T01:28:13.858Z,930.8
2017-01-21T01:28:28.672Z,930.79
2017-01-21T01:28:43.466Z,930.79
2017-01-21T01:28:58.354Z,930.81
2017-01-21T01:29:13.196Z,930.8
2017-01-21T01:29:28.091Z,930.82
2017-01-21T01:29:42.843Z,930.77
2017-01-21T01:29:57.554Z,930.8
2017-01-21T01:30:12.340Z,930.79
2017-01-21T01:30:27.093Z,930.78
2017-01-21T01:30:42.040Z,930.79
2017-01-21T01:30:56.838Z,930.76
2017-01-21T01:31:11.614Z,930.8
2017-01-21T01:31:26.396Z,930.79
2017-01-21T01:31:41.210Z,930.79
2017-01-21T01:31:56.124Z,930.8
2017-01-21T01:32:11.072Z,930.78
2017-01-21T01:32:26.117Z,930.78
2017-01-21T01:32:40.957Z,930.77
2017-01-21T01:32:55.455Z,930.75
2017-01-21T01:33:10.219Z,930.75
2017-01-21T01:33:24.850Z,930.73
2017-01-21T01:33:39.747Z,930.76
2017-01-21T01:33:54.265Z,930.73
2017-01-21T01:34:09.108Z,930.75
2017-01-21T01:34:23.628Z,930.78
2017-01-21T01:34:38.648Z,930.75
2017-01-21T01:34:53.251Z,930.72
2017-01-21T01:35:08.254Z,930.77
2017-01-21T01:35:23.333Z,930.72
2017-01-21T01:35:38.420Z,930.76
2017-01-21T01:35:53.196Z,930.77
2017-01-21T01:36:08.088Z,930.77
2017-01-21T01:36:22.720Z,930.74
2017-01-21T01:36:37.560Z,930.78
2017-01-21T01:36:52.365Z,930.8
2017-01-21T01:37:07.159Z,930.74
2017-01-21T01:37:22.069Z,930.8
2017-01-21T01:37:37.029Z,930.77
2017-01-21T01:37:51.932Z,930.78
2017-01-21T01:38:07.013Z,930.78
2017-01-21T01:38:22.133Z,930.76
2017-01-21T01:38:36.848Z,930.77
2017-01-21T01:38:51.584Z,930.75
2017-01-21T01:39:06.389Z,930.72
2017-01-21T01:39:21.127Z,930.72
2017-01-21T01:39:36.004Z,930.73
2017-01-21T01:39:50.627Z,930.71
2017-01-21T01:40:05.284Z,930.74
2017-01-21T01:40:20.314Z,930.74
2017-01-21T01:40:35.305Z,930.75
2017-01-21T01:40:50.279Z,930.75
2017-01-21T01:41:05.258Z,930.73
2017-01-21T01:41:20.060Z,930.75
2017-01-21T01:41:34.931Z,930.73
2017-01-21T01:41:49.983Z,930.71
2017-01-21T01:42:04.665Z,930.76
2017-01-21T01:42:19.404Z,930.75
2017-01-21T01:42:34.156Z,930.74
2017-01-21T01:42:49.168Z,930.71
2017-01-21T01:43:04.386Z,930.71
2017-01-21T01:43:19.084Z,930.71
2017-01-21T01:43:33.859Z,930.72
2017-01-21T01:43:48.581Z,930.76
2017-01-21T01:44:03.549Z,930.76
2017-01-21T01:44:18.313Z,930.76
2017-01-21T01:44:33.015Z,930.75
2017-01-21T01:44:47.839Z,930.74
2017-01-21T01:45:02.709Z,930.75
2017-01-21T01:45:17.454Z,930.7
2017-01-21T01:45:32.248Z,930.77
2017-01-21T01:45:46.997Z,930.73
2017-01-21T01:46:01.728Z,930.75
2017-01-21T01:46:16.604Z,930.75
2017-01-21T01:46:31.151Z,930.75
2017-01-21T01:46:45.942Z,930.73
2017-01-21T01:47:00.788Z,930.75
2017-01-21T01:47:15.724Z,930.74
2017-01-21T01:47:30.719Z,930.76
2017-01-21T01:47:45.578Z,930.71
2017-01-21T01:48:00.586Z,930.73
2017-01-21T01:48:15.472Z,930.75
2017-01-21T01:48:30.223Z,930.75
2017-01-21T01:48:45.064Z,930.76
2017-01-21T01:49:00.053Z,930.72
2017-01-21T01:49:14.880Z,930.76
2017-01-21T01:49:29.948Z,930.72
2017-01-21T01:49:44.592Z,930.71
2017-01-21T01:49:59.263Z,930.72
2017-01-21T01:50:14.104Z,930.7
2017-01-21T01:50:29.056Z,930.68
2017-01-21T01:50:44.024Z,930.66
2017-01-21T01:50:58.667Z,930.67
2017-01-21T01:51:13.427Z,930.69
2017-01-21T01:51:28.231Z,930.65
2017-01-21T01:51:43.248Z,930.67
2017-01-21T01:51:57.805Z,930.68
2017-01-21T01:52:12.620Z,930.66
2017-01-21T01:52:27.411Z,930.63
2017-01-21T01:52:42.509Z,930.62
2017-01-21T01:52:57.141Z,930.63
2017-01-21T01:53:11.973Z,930.58
2017-01-21T01:53:26.774Z,930.62
2017-01-21T01:53:41.620Z,930.62
2017-01-21T01:53:56.417Z,930.6
2017-01-21T01:54:11.162Z,930.61
2017-01-21T01:54:26.233Z,930.6
2017-01-21T01:54:40.857Z,930.61
2017-01-21T01:54:55.859Z,930.63
2017-01-21T01:55:10.906Z,930.59
2017-01-21T01:55:25.707Z,930.58
2017-01-21T01:55:40.593Z,930.57
2017-01-21T01:55:55.487Z,930.59
2017-01-21T01:56:10.400Z,930.61
2017-01-21T01:56:25.220Z,930.56
2017-01-21T01:56:40.304Z,930.6
2017-01-21T01:56:55.246Z,930.59
2017-01-21T01:57:10.305Z,930.58
2017-01-21T01:57:25.084Z,930.59
2017-01-21T01:57:39.932Z,930.56
2017-01-21T01:57:54.658Z,930.61
2017-01-21T01:58:09.679Z,930.58
2017-01-21T01:58:24.504Z,930.59
2017-01-21T01:58:39.166Z,930.58
2017-01-21T01:58:53.857Z,930.62
2017-01-21T01:59:08.376Z,930.61
2017-01-21T01:59:23.348Z,930.6
2017-01-21T01:59:38.116Z,930.59
2017-01-21T01:59:52.841Z,930.58
2017-01-21T02:00:07.729Z,930.58
2017-01-21T02:00:22.376Z,930.58
2017-01-21T02:00:37.157Z,930.58
2017-01-21T02:00:52.050Z,930.56
2017-01-21T02:01:06.907Z,930.57
2017-01-21T02:01:21.529Z,930.56
2017-01-21T02:01:36.476Z,930.6
2017-01-21T02:01:51.091Z,930.53
2017-01-21T02:02:05.757Z,930.58
2017-01-21T02:02:20.535Z,930.57
2017-01-21T02:02:35.551Z,930.56
2017-01-21T02:02:50.596Z,930.57
2017-01-21T02:03:05.465Z,930.56
2017-01-21T02:03:20.253Z,930.54
2017-01-21T02:03:35.202Z,930.54
2017-01-21T02:03:50.244Z,930.56
2017-01-21T02:04:04.954Z,930.58
2017-01-21T02:04:19.691Z,930.57
2017-01-21T02:04:34.724Z,930.57
2017-01-21T02:04:49.687Z,930.56
2017-01-21T02:05:04.342Z,930.57
2017-01-21T02:05:18.988Z,930.57
2017-01-21T02:05:33.634Z,930.56
2017-01-21T02:05:48.298Z,930.56
2017-01-21T02:06:03.036Z,930.54
2017-01-21T02:06:17.923Z,930.55
2017-01-21T02:06:32.796Z,930.53
2017-01-21T02:06:47.835Z,930.54
2017-01-21T02:07:02.664Z,930.56
2017-01-21T02:07:17.570Z,930.55
2017-01-21T02:07:32.624Z,930.51
2017-01-21T02:07:47.533Z,930.54
2017-01-21T02:08:02.478Z,930.56
2017-01-21T02:08:17.294Z,930.54
2017-01-21T02:08:32.066Z,930.51
2017-01-21T02:08:46.858Z,930.51
2017-01-21T02:09:01.543Z,930.53
2017-01-21T02:09:16.262Z,930.48
2017-01-21T02:09:31.315Z,930.45
2017-01-21T02:09:46.169Z,930.46
2017-01-21T02:10:01.038Z,930.49
2017-01-21T02:10:15.843Z,930.44
2017-01-21T02:10:30.498Z,930.47
2017-01-21T02:10:45.163Z,930.46
2017-01-21T02:10:59.895Z,930.45
2017-01-21T02:11:14.535Z,930.43
2017-01-21T02:11:29.367Z,930.45
2017-01-21T02:11:44.296Z,930.43
2017-01-21T02:11:59.207Z,930.43
2017-01-21T02:12:13.863Z,930.43
2017-01-21T02:12:28.645Z,930.4
2017-01-21T02:12:43.715Z,930.39
2017-01-21T02:12:58.356Z,930.4
2017-01-21T02:13:13.385Z,930.39
2017-01-21T02:13:28.311Z,930.4
2017-01-21T02:13:43.086Z,930.43
2017-01-21T02:13:58.173Z,930.43
2017-01-21T02:14:13.155Z,930.41
2017-01-21T02:14:27.813Z,930.43
2017-01-21T02:14:42.548Z,930.41
2017-01-21T02:14:57.219Z,930.4
2017-01-21T02:15:12.146Z,930.38
2017-01-21T02:15:27.134Z,930.42
2017-01-21T02:15:42.179Z,930.4
2017-01-21T02:15:56.991Z,930.36
2017-01-21T02:16:11.690Z,930.36
2017-01-21T02:16:26.660Z,930.37
2017-01-21T02:16:41.597Z,930.35
2017-01-21T02:16:56.259Z,930.34
2017-01-21T02:17:11.081Z,930.33
2017-01-21T02:17:26.156Z,930.32
2017-01-21T02:17:40.943Z,930.31
2017-01-21T02:17:55.774Z,930.31
2017-01-21T02:18:10.720Z,930.33
2017-01-21T02:18:25.492Z,930.31
2017-01-21T02:18:40.346Z,930.29
2017-01-21T02:18:55.276Z,930.26
2017-01-21T02:19:10.028Z,930.26
2017-01-21T02:19:24.815Z,930.29
2017-01-21T02:19:39.381Z,930.28
2017-01-21T02:19:54.398Z,930.25
2017-01-21T02:20:09.288Z,930.25
2017-01-21T02:20:23.769Z,930.28
2017-01-21T02:20:38.708Z,930.24
2017-01-21T02:20:53.730Z,930.26
2017-01-21T02:21:08.577Z,930.27
2017-01-21T02:21:23.384Z,930.24
2017-01-21T02:21:38.114Z,930.25
2017-01-21T02:21:52.886Z,930.22
2017-01-21T02:22:07.772Z,930.25
2017-01-21T02:22:22.401Z,930.21
2017-01-21T02:22:37.192Z,930.21
2017-01-21T02:22:51.998Z,930.19
2017-01-21T02:23:06.664Z,930.23
2017-01-21T02:23:21.380Z,930.2
2017-01-21T02:23:36.024Z,930.22
2017-01-21T02:23:51.196Z,930.2
2017-01-21T02:24:06.031Z,930.24
2017-01-21T02:24:21.053Z,930.21
2017-01-21T02:24:35.801Z,930.21
2017-01-21T02:24:50.633Z,930.22
2017-01-21T02:25:05.694Z,930.22
2017-01-21T02:25:20.702Z,930.24
2017-01-21T02:25:35.566Z,930.24
2017-01-21T02:25:50.240Z,930.2
2017-01-21T02:26:05.233Z,930.2
2017-01-21T02:26:20.174Z,930.19
2017-01-21T02:26:35.029Z,930.21
2017-01-21T02:26:49.721Z,930.18
2017-01-21T02:27:04.440Z,930.19
2017-01-21T02:27:19.475Z,930.19
2017-01-21T02:27:34.259Z,930.22
2017-01-21T02:27:49.302Z,930.2
2017-01-21T02:28:04.123Z,930.19
2017-01-21T02:28:18.791Z,930.22
2017-01-21T02:28:33.552Z,930.22
2017-01-21T02:28:48.301Z,930.22
2017-01-21T02:29:02.928Z,930.18
2017-01-21T02:29:17.588Z,930.21
2017-01-21T02:29:32.633Z,930.18
2017-01-21T02:29:47.542Z,930.15
2017-01-21T02:30:02.455Z,930.19
2017-01-21T02:30:17.328Z,930.16
2017-01-21T02:30:32.328Z,930.18
2017-01-21T02:30:47.078Z,930.17
2017-01-21T02:31:02.010Z,930.13
2017-01-21T02:31:16.976Z,930.14
2017-01-21T02:31:31.888Z,930.16
2017-01-21T02:31:46.571Z,930.15
2017-01-21T02:32:01.279Z,930.14
2017-01-21T02:32:16.669Z,930.14
2017-01-21T02:32:31.522Z,930.16
2017-01-21T02:32:46.458Z,930.12
2017-01-21T02:33:01.493Z,930.14
2017-01-21T02:33:16.362Z,930.13
2017-01-21T02:33:31.339Z,930.12
2017-01-21T02:33:45.890Z,930.14
2017-01-21T02:34:00.923Z,930.11
2017-01-21T02:34:15.627Z,930.1
2017-01-21T02:34:30.550Z,930.09
2017-01-21T02:34:45.372Z,930.1
2017-01-21T02:35:00.320Z,930.13
2017-01-21T02:35:15.372Z,930.11
2017-01-21T02:35:30.201Z,930.1
2017-01-21T02:35:45.234Z,930.07
2017-01-21T02:36:00.225Z,930.05
2017-01-21T02:36:14.951Z,930.09
2017-01-21T02:36:29.760Z,930.09
2017-01-21T02:36:44.526Z,930.05
2017-01-21T02:36:59.582Z,930.06
2017-01-21T02:37:14.721Z,930.09
2017-01-21T02:37:29.592Z,930.08
2017-01-21T02:37:44.193Z,930.06
2017-01-21T02:37:59.104Z,930.04
2017-01-21T02:38:14.098Z,930.06
2017-01-21T02:38:28.905Z,930.03
2017-01-21T02:38:43.951Z,930.07
2017-01-21T02:38:59.011Z,930.07
2017-01-21T02:39:13.812Z,930.03
2017-01-21T02:39:28.885Z,930.05
2017-01-21T02:39:43.692Z,930.03
2017-01-21T02:39:58.408Z,930.04
2017-01-21T02:40:13.096Z,930.01
2017-01-21T02:40:28.134Z,930.02
2017-01-21T02:40:42.788Z,929.99
2017-01-21T02:40:57.425Z,930.01
2017-01-21T02:41:12.427Z,930.01
2017-01-21T02:41:27.506Z,929.96
2017-01-21T02:41:42.149Z,930.01
2017-01-21T02:41:56.993Z,930
2017-01-21T02:42:11.885Z,929.98
2017-01-21T02:42:27.015Z,929.97
2017-01-21T02:42:42.097Z,929.98
2017-01-21T02:42:56.840Z,929.98
2017-01-21T02:43:11.986Z,929.99
2017-01-21T02:43:27.007Z,929.94
2017-01-21T02:43:41.684Z,929.95
2017-01-21T02:43:56.705Z,929.93
2017-01-21T02:44:11.426Z,929.94
2017-01-21T02:44:26.208Z,929.94
2017-01-21T02:44:41.090Z,929.92
2017-01-21T02:44:56.047Z,929.91
2017-01-21T02:45:10.909Z,929.92
2017-01-21T02:45:25.674Z,929.88
2017-01-21T02:45:40.376Z,929.89
2017-01-21T02:45:55.410Z,929.91
2017-01-21T02:46:10.223Z,929.87
2017-01-21T02:46:24.909Z,929.89
2017-01-21T02:46:39.924Z,929.9
2017-01-21T02:46:54.852Z,929.9
2017-01-21T02:47:09.777Z,929.92
2017-01-21T02:47:24.422Z,929.88
2017-01-21T02:47:39.201Z,929.85
2017-01-21T02:47:54.095Z,929.88
2017-01-21T02:48:08.945Z,929.86
2017-01-21T02:48:24.094Z,929.85
2017-01-21T02:48:39.166Z,929.86
2017-01-21T02:48:54.161Z,929.84
2017-01-21T02:49:08.744Z,929.84
2017-01-21T02:49:23.892Z,929.84
2017-01-21T02:49:38.786Z,929.82
2017-01-21T02:49:53.717Z,929.84
2017-01-21T02:50:08.634Z,929.87
2017-01-21T02:50:23.514Z,929.84
2017-01-21T02:50:38.213Z,929.83
2017-01-21T02:50:53.079Z,929.8
2017-01-21T02:51:07.971Z,929.78
2017-01-21T02:51:22.897Z,929.8
2017-01-21T02:51:37.981Z,929.81
2017-01-21T02:51:52.898Z,929.8
2017-01-21T02:52:07.702Z,929.79
2017-01-21T02:52:22.680Z,929.81
2017-01-21T02:52:37.359Z,929.77
2017-01-21T02:52:52.257Z,929.75
2017-01-21T02:53:06.887Z,929.82
2017-01-21T02:53:21.620Z,929.8
2017-01-21T02:53:36.582Z,929.77
2017-01-21T02:53:51.497Z,929.75
2017-01-21T02:54:06.809Z,929.77
2017-01-21T02:54:21.552Z,929.8
2017-01-21T02:54:36.556Z,929.8
2017-01-21T02:54:51.759Z,929.78
2017-01-21T02:55:06.649Z,929.78
2017-01-21T02:55:21.560Z,929.77
2017-01-21T02:55:36.301Z,929.73
2017-01-21T02:55:51.178Z,929.77
2017-01-21T02:56:05.900Z,929.72
2017-01-21T02:56:20.784Z,929.73
2017-01-21T02:56:35.612Z,929.72
2017-01-21T02:56:50.467Z,929.74
2017-01-21T02:57:05.381Z,929.76
2017-01-21T02:57:20.201Z,929.73
2017-01-21T02:57:35.196Z,929.71
2017-01-21T02:57:50.115Z,929.72
2017-01-21T02:58:04.769Z,929.73
2017-01-21T02:58:19.918Z,929.74
2017-01-21T02:58:34.881Z,929.68
2017-01-21T02:58:49.748Z,929.68
2017-01-21T02:59:04.489Z,929.71
2017-01-21T02:59:19.410Z,929.68
2017-01-21T02:59:34.372Z,929.68
2017-01-21T02:59:49.461Z,929.67
2017-01-21T03:00:04.256Z,929.7
2017-01-21T03:00:19.010Z,929.68
2017-01-21T03:00:34.166Z,929.68
2017-01-21T03:00:48.779Z,929.68
2017-01-21T03:01:03.809Z,929.67
2017-01-21T03:01:18.998Z,929.69
2017-01-21T03:01:33.767Z,929.69
2017-01-21T03:01:48.653Z,929.67
2017-01-21T03:02:03.182Z,929.63
2017-01-21T03:02:18.145Z,929.64
2017-01-21T03:02:33.062Z,929.67
2017-01-21T03:02:47.966Z,929.67
2017-01-21T03:03:02.828Z,929.66
2017-01-21T03:03:17.975Z,929.68
2017-01-21T03:03:32.881Z,929.69
2017-01-21T03:03:47.721Z,929.65
2017-01-21T03:04:02.860Z,929.67
2017-01-21T03:04:17.973Z,929.7
2017-01-21T03:04:32.968Z,929.69
2017-01-21T03:04:47.469Z,929.66
2017-01-21T03:05:02.203Z,929.7
2017-01-21T03:05:17.014Z,929.73
2017-01-21T03:05:32.100Z,929.72
2017-01-21T03:05:46.920Z,929.73
2017-01-21T03:06:01.861Z,929.74
2017-01-21T03:06:16.887Z,929.73